Time;durP1;ratioP1;P1;durP2;ratioP2;P2;SDS_P1;SDS_P2;PMS_P1;PMS_P2;Temp;Humidity;BMP_temperature;BMP_pressure;BME280_temperature;BME280_humidity;BME280_pressure;Samples;Min_cycle;Max_cycle;Signal;HPM_P1;HPM_P2
2021/11/22 00:00:54;;;;;;;116.50;63.00;;;;;;;6.60;73.44;96683.62;1820172;77;25779;-85
2021/11/22 00:03:21;;;;;;;118.08;62.88;;;;;;;6.58;73.47;96684.84;1820073;77;28187;-86
2021/11/22 00:05:47;;;;;;;108.83;60.23;;;;;;;6.59;73.58;96690.01;1820069;78;25806;-85
2021/11/22 00:08:14;;;;;;;112.57;63.45;;;;;;;6.62;73.56;96689.61;1819392;78;25648;-86
2021/11/22 00:10:41;;;;;;;105.43;59.60;;;;;;;6.66;73.53;96685.47;1820136;77;26451;-86
2021/11/22 00:13:07;;;;;;;103.00;58.65;;;;;;;6.65;73.50;96687.83;1820137;77;25764;-85
2021/11/22 00:15:34;;;;;;;105.52;58.33;;;;;;;6.62;73.48;96689.61;1820187;77;27276;-85
2021/11/22 00:18:01;;;;;;;103.00;55.90;;;;;;;6.60;73.57;96694.86;1819996;77;25851;-85
2021/11/22 00:20:27;;;;;;;91.45;55.70;;;;;;;6.59;73.54;96694.03;1818813;77;25977;-85
2021/11/22 00:22:55;;;;;;;103.85;57.48;;;;;;;6.60;73.53;96695.69;1820199;77;26258;-85
2021/11/22 00:25:22;;;;;;;96.72;54.05;;;;;;;6.59;73.50;96701.25;1819414;77;26423;-85
2021/11/22 00:27:49;;;;;;;90.92;54.98;;;;;;;6.60;73.54;96697.54;1819456;77;28238;-85
2021/11/22 00:30:16;;;;;;;100.82;55.03;;;;;;;6.60;73.56;96701.05;1816780;77;25859;-85
2021/11/22 00:32:45;;;;;;;91.42;54.20;;;;;;;6.59;73.62;96707.44;1807530;77;26050;-86
2021/11/22 00:35:14;;;;;;;96.57;54.48;;;;;;;6.60;73.63;96706.92;1820162;77;25779;-86
2021/11/22 00:37:45;;;;;;;99.55;55.28;;;;;;;6.61;73.63;96714.77;1820057;77;25835;-85
2021/11/22 00:40:14;;;;;;;88.85;51.23;;;;;;;6.62;73.61;96716.94;1820298;77;27363;-86
2021/11/22 00:42:47;;;;;;;96.45;52.85;;;;;;;6.61;73.65;96721.98;1819863;77;25684;-85
2021/11/22 00:45:14;;;;;;;96.15;54.80;;;;;;;6.59;73.65;96722.70;1819814;77;26365;-85
2021/11/22 00:47:41;;;;;;;98.62;53.35;;;;;;;6.57;73.69;96721.55;1819818;77;25811;-85
2021/11/22 00:50:09;;;;;;;92.85;53.95;;;;;;;6.56;73.72;96723.92;1819786;77;26373;-86
2021/11/22 00:52:36;;;;;;;90.38;53.58;;;;;;;6.56;73.75;96725.27;1818932;78;27362;-86
2021/11/22 00:55:05;;;;;;;95.72;53.42;;;;;;;6.55;73.80;96727.62;1819704;77;25613;-85
2021/11/22 00:57:32;;;;;;;97.05;56.28;;;;;;;6.51;73.86;96722.38;1819867;77;25882;-84
2021/11/22 00:59:59;;;;;;;102.38;57.30;;;;;;;6.49;73.92;96731.14;1819744;77;25810;-85
2021/11/22 01:02:27;;;;;;;91.85;54.05;;;;;;;6.44;73.89;96733.58;1813665;77;25313;-85
2021/11/22 01:04:53;;;;;;;99.83;56.13;;;;;;;6.42;73.99;96732.44;1819664;77;27365;-85
2021/11/22 01:07:20;;;;;;;99.05;56.33;;;;;;;6.44;74.06;96734.92;1819733;77;25794;-85
2021/11/22 01:09:47;;;;;;;99.32;56.10;;;;;;;6.43;74.08;96739.97;1819886;77;25722;-85
2021/11/22 01:12:13;;;;;;;88.80;51.80;;;;;;;6.41;74.12;96735.31;1819108;77;26469;-85
2021/11/22 01:14:40;;;;;;;92.17;55.10;;;;;;;6.42;74.16;96741.82;1819567;77;25692;-85
2021/11/22 01:17:07;;;;;;;96.55;53.78;;;;;;;6.42;74.18;96734.30;1818977;77;27419;-85
2021/11/22 01:19:34;;;;;;;94.20;55.50;;;;;;;6.42;74.19;96735.63;1802490;77;25772;-85
2021/11/22 01:22:01;;;;;;;94.03;54.00;;;;;;;6.42;74.25;96727.59;1819819;77;26464;-86
2021/11/22 01:24:28;;;;;;;93.22;54.08;;;;;;;6.43;74.18;96732.75;1818637;77;25742;-85
2021/11/22 01:26:55;;;;;;;96.97;55.12;;;;;;;6.41;74.23;96732.64;1809963;77;25692;-86
2021/11/22 01:29:21;;;;;;;93.70;54.10;;;;;;;6.39;74.24;96733.38;1819706;77;27513;-85
2021/11/22 01:31:48;;;;;;;100.45;56.85;;;;;;;6.39;74.28;96736.06;1819392;77;25707;-85
2021/11/22 01:34:15;;;;;;;91.65;51.90;;;;;;;6.42;74.31;96739.14;1819848;77;26330;-86
2021/11/22 01:36:41;;;;;;;92.97;53.90;;;;;;;6.44;74.31;96742.97;1819691;77;25749;-85
2021/11/22 01:39:08;;;;;;;94.40;53.85;;;;;;;6.43;74.31;96739.97;1819058;77;25740;-85
2021/11/22 01:41:34;;;;;;;90.97;52.25;;;;;;;6.41;74.35;96737.48;1819835;77;28071;-85
2021/11/22 01:44:01;;;;;;;94.42;55.03;;;;;;;6.41;74.38;96733.98;1819346;77;25289;-85
2021/11/22 01:46:28;;;;;;;93.67;53.98;;;;;;;6.39;74.41;96736.06;1819142;77;25749;-85
2021/11/22 01:48:56;;;;;;;93.78;53.02;;;;;;;6.40;74.44;96737.72;1819683;77;25842;-85
2021/11/22 01:51:23;;;;;;;99.37;56.65;;;;;;;6.39;74.46;96731.52;1818798;77;25788;-86
2021/11/22 01:53:49;;;;;;;92.53;54.90;;;;;;;6.39;74.49;96731.52;1819727;77;27518;-85
2021/11/22 01:56:16;;;;;;;96.55;54.85;;;;;;;6.41;74.51;96729.95;1819608;77;25885;-85
2021/11/22 01:58:46;;;;;;;96.10;54.85;;;;;;;6.40;74.50;96729.67;1819714;77;25807;-85
2021/11/22 02:01:12;;;;;;;97.37;57.25;;;;;;;6.40;74.53;96736.38;1819762;77;25692;-85
2021/11/22 02:03:39;;;;;;;94.87;55.00;;;;;;;6.41;74.58;96729.95;1819771;77;25652;-86
2021/11/22 02:06:05;;;;;;;93.12;53.68;;;;;;;6.41;74.54;96736.66;1819840;78;27438;-85
2021/11/22 02:08:33;;;;;;;95.03;55.15;;;;;;;6.41;74.58;96731.30;1818913;77;25791;-85
2021/11/22 02:11:00;;;;;;;86.85;50.23;;;;;;;6.41;74.57;96738.00;1819735;77;25844;-86
2021/11/22 02:13:27;;;;;;;86.20;50.98;;;;;;;6.38;74.62;96745.13;1819760;77;26638;-86
2021/11/22 02:15:54;;;;;;;91.50;53.48;;;;;;;6.35;74.69;96738.81;1819448;77;25659;-85
2021/11/22 02:18:21;;;;;;;97.12;54.03;;;;;;;6.33;74.72;96738.19;1820021;78;27378;-86
2021/11/22 02:20:48;;;;;;;96.95;55.90;;;;;;;6.33;74.75;96743.55;1819793;77;25804;-85
2021/11/22 02:23:15;;;;;;;95.00;55.85;;;;;;;6.32;74.76;96743.23;1819104;77;25815;-86
2021/11/22 02:25:44;;;;;;;94.20;55.43;;;;;;;6.32;74.79;96750.77;1819874;77;25807;-85
2021/11/22 02:28:13;;;;;;;95.97;55.25;;;;;;;6.32;74.79;96754.78;1819924;77;25689;-85
2021/11/22 02:30:45;;;;;;;102.02;55.60;;;;;;;6.30;74.84;96757.34;1819779;77;28190;-85
2021/11/22 02:33:19;;;;;;;97.72;54.08;;;;;;;6.28;74.88;96752.72;1820073;77;26234;-85
2021/11/22 02:35:54;;;;;;;97.55;53.05;;;;;;;6.25;74.90;96755.28;1819317;77;25882;-85
2021/11/22 02:38:23;;;;;;;95.83;52.45;;;;;;;6.23;74.94;96759.18;1819932;77;25686;-84
2021/11/22 02:40:50;;;;;;;92.17;51.53;;;;;;;6.24;75.00;96758.16;1814273;77;25908;-85
2021/11/22 02:43:17;;;;;;;90.05;53.20;;;;;;;6.28;75.06;96757.54;1819749;77;28343;-85
2021/11/22 02:45:44;;;;;;;96.67;52.20;;;;;;;6.29;75.00;96763.22;1820101;77;25679;-85
2021/11/22 02:48:10;;;;;;;89.13;52.88;;;;;;;6.28;75.06;96760.77;1819608;77;25663;-85
2021/11/22 02:50:37;;;;;;;96.05;53.95;;;;;;;6.26;75.05;96769.52;1819516;77;26424;-85
2021/11/22 02:53:03;;;;;;;88.80;48.48;;;;;;;6.25;75.12;96775.38;1820325;78;25699;-85
2021/11/22 02:55:30;;;;;;;88.97;50.10;;;;;;;6.26;75.12;96774.88;1820245;78;28074;-85
2021/11/22 02:57:57;;;;;;;80.32;46.50;;;;;;;6.22;75.13;96778.45;1818745;77;26616;-84
2021/11/22 03:00:27;;;;;;;79.45;46.75;;;;;;;6.21;75.16;96774.63;1820381;77;25723;-85
2021/11/22 03:02:55;;;;;;;76.92;46.05;;;;;;;6.21;75.21;96778.65;1823424;77;25740;-85
2021/11/22 03:05:23;;;;;;;76.72;45.20;;;;;;;6.19;75.23;96779.36;1820237;77;25781;-85
2021/11/22 03:07:53;;;;;;;77.22;47.30;;;;;;;6.17;75.22;96785.42;1820253;77;27596;-85
2021/11/22 03:10:21;;;;;;;78.20;46.15;;;;;;;6.16;75.23;96794.52;1820079;77;25815;-85
2021/11/22 03:12:49;;;;;;;82.08;49.18;;;;;;;6.14;75.26;96794.20;1820208;77;25732;-85
2021/11/22 03:15:18;;;;;;;79.60;47.93;;;;;;;6.15;75.30;96791.01;1820120;77;25765;-85
2021/11/22 03:17:46;;;;;;;68.05;41.30;;;;;;;6.15;75.30;96796.37;1820205;77;25685;-85
2021/11/22 03:20:17;;;;;;;59.42;38.25;;;;;;;6.13;75.28;96799.23;1820237;77;26865;-85
2021/11/22 03:22:45;;;;;;;60.08;34.70;;;;;;;6.19;75.28;96802.14;1820135;77;25802;-85
2021/11/22 03:25:12;;;;;;;55.38;30.88;;;;;;;6.22;75.21;96793.70;1820250;78;25790;-86
2021/11/22 03:27:41;;;;;;;51.60;32.45;;;;;;;6.26;75.05;96794.97;1819822;77;25739;-86
2021/11/22 03:30:10;;;;;;;53.55;32.88;;;;;;;6.27;74.90;96799.31;1808324;76;25639;-86
2021/11/22 03:32:37;;;;;;;50.80;31.17;;;;;;;6.27;74.83;96792.61;1818311;77;27338;-85
2021/11/22 03:35:06;;;;;;;57.48;33.98;;;;;;;6.28;74.78;96798.29;1808204;77;25215;-85
2021/11/22 03:37:32;;;;;;;54.98;33.28;;;;;;;6.28;74.71;96806.33;1815915;77;25655;-85
2021/11/22 03:40:00;;;;;;;63.52;33.65;;;;;;;6.26;74.71;96808.37;1820041;77;25806;-86
2021/11/22 03:42:36;;;;;;;57.25;34.50;;;;;;;6.25;74.75;96804.04;1820134;77;26203;-85
2021/11/22 03:44:55;;;;;;;62.03;35.90;;;;;;;6.27;74.77;96804.67;1816166;77;27415;-85
2021/11/22 03:47:22;;;;;;;60.40;34.90;;;;;;;6.30;74.68;96809.61;1778364;79;26363;-85
2021/11/22 03:49:49;;;;;;;62.27;35.98;;;;;;;6.31;74.55;96808.59;1794754;78;25665;-85
2021/11/22 03:52:15;;;;;;;56.70;33.80;;;;;;;6.31;74.48;96819.31;1778731;79;25812;-85
2021/11/22 03:54:42;;;;;;;59.42;36.28;;;;;;;6.33;74.45;96814.58;1795022;78;25334;-85
2021/11/22 03:57:08;;;;;;;60.33;37.13;;;;;;;6.33;74.35;96822.63;1778724;79;27351;-85
2021/11/22 03:59:35;;;;;;;62.55;38.53;;;;;;;6.31;74.27;96820.65;1794740;78;25716;-85
2021/11/22 04:02:02;;;;;;;65.35;38.25;;;;;;;6.27;74.27;96823.44;1777950;79;26378;-86
2021/11/22 04:04:29;;;;;;;66.22;38.50;;;;;;;6.26;74.32;96821.77;1794665;79;26350;-85
2021/11/22 04:06:55;;;;;;;61.13;36.53;;;;;;;6.28;74.33;96831.80;1764007;79;25721;-86
2021/11/22 04:09:22;;;;;;;66.07;38.25;;;;;;;6.29;74.30;96828.05;1788101;78;28086;-86
2021/11/22 04:11:49;;;;;;;63.48;36.60;;;;;;;6.26;74.24;96833.84;1777807;79;25660;-85
2021/11/22 04:14:15;;;;;;;66.95;37.45;;;;;;;6.21;74.25;96833.59;1794810;78;25714;-85
2021/11/22 04:16:42;;;;;;;68.45;39.08;;;;;;;6.20;74.28;96838.63;1778711;79;25726;-85
2021/11/22 04:19:09;;;;;;;60.52;36.90;;;;;;;6.17;74.34;96837.16;1777065;78;25744;-85
2021/11/22 04:21:35;;;;;;;66.00;38.25;;;;;;;6.16;74.41;96842.75;1800091;78;28136;-85
2021/11/22 04:24:02;;;;;;;68.33;40.23;;;;;;;6.13;74.45;96846.14;1778359;80;26244;-85
2021/11/22 04:26:29;;;;;;;62.53;37.63;;;;;;;6.14;74.54;96846.45;1794095;78;25736;-85
2021/11/22 04:28:55;;;;;;;62.27;37.73;;;;;;;6.17;74.51;96845.72;1778722;79;25727;-85
2021/11/22 04:31:22;;;;;;;65.80;37.53;;;;;;;6.16;74.49;96850.80;1794886;78;25748;-85
2021/11/22 04:33:48;;;;;;;67.50;38.98;;;;;;;6.14;74.49;96849.13;1778749;79;27965;-85
2021/11/22 04:36:15;;;;;;;63.58;39.55;;;;;;;6.11;74.45;96842.81;1794758;78;25811;-85
2021/11/22 04:38:42;;;;;;;68.02;39.10;;;;;;;6.08;74.56;96845.89;1778711;79;25891;-85
2021/11/22 04:41:08;;;;;;;64.40;38.78;;;;;;;6.09;74.64;96850.22;1794840;78;25815;-85
2021/11/22 04:43:35;;;;;;;65.42;38.63;;;;;;;6.08;74.65;96857.94;1778458;79;25809;-85
2021/11/22 04:46:02;;;;;;;65.00;39.98;;;;;;;6.08;74.74;96855.27;1791751;78;28140;-85
2021/11/22 04:48:28;;;;;;;65.28;36.58;;;;;;;6.10;74.78;96853.73;1791537;78;26484;-85
2021/11/22 04:50:56;;;;;;;64.87;36.80;;;;;;;6.08;74.73;96851.25;1791781;80;25765;-85
2021/11/22 04:53:23;;;;;;;63.52;37.98;;;;;;;6.07;74.76;96854.95;1790018;80;26579;-85
2021/11/22 04:55:50;;;;;;;64.72;39.55;;;;;;;6.07;74.76;96855.45;1791836;78;25740;-85
2021/11/22 04:58:16;;;;;;;68.85;39.00;;;;;;;6.05;74.78;96850.29;1791824;78;27351;-85
2021/11/22 05:00:43;;;;;;;62.98;39.25;;;;;;;6.04;74.73;96853.98;1791605;78;26358;-85
2021/11/22 05:03:11;;;;;;;66.53;39.50;;;;;;;6.03;74.72;96856.38;1791768;80;25794;-84
2021/11/22 05:05:38;;;;;;;69.20;39.53;;;;;;;6.01;74.68;96861.10;1791677;78;25730;-85
2021/11/22 05:08:08;;;;;;;67.15;39.58;;;;;;;6.00;74.62;96863.47;1791817;78;25820;-84
2021/11/22 05:10:38;;;;;;;68.47;39.83;;;;;;;5.97;74.57;96867.03;1791728;78;27608;-84
2021/11/22 05:13:06;;;;;;;63.30;37.95;;;;;;;5.93;74.54;96863.91;1791594;80;26021;-85
2021/11/22 05:15:36;;;;;;;72.70;38.90;;;;;;;5.88;74.54;96862.34;1791657;79;25712;-85
2021/11/22 05:18:04;;;;;;;65.28;38.05;;;;;;;5.83;74.42;96867.41;1781476;78;25850;-85
2021/11/22 05:20:31;;;;;;;63.05;37.35;;;;;;;5.75;74.42;96867.57;1791705;78;25828;-84
2021/11/22 05:22:59;;;;;;;59.75;36.73;;;;;;;5.68;74.41;96873.37;1791617;78;28158;-84
2021/11/22 05:25:26;;;;;;;57.13;34.65;;;;;;;5.61;74.44;96887.22;1785840;78;25819;-85
2021/11/22 05:27:52;;;;;;;59.25;35.88;;;;;;;5.55;74.52;96882.66;1785971;78;25729;-84
2021/11/22 05:30:25;;;;;;;60.05;34.05;;;;;;;5.51;74.48;96894.75;1791763;78;25805;-85
2021/11/22 05:32:49;;;;;;;66.05;37.00;;;;;;;5.47;74.52;96884.93;1817903;77;25648;-86
2021/11/22 05:35:15;;;;;;;54.63;33.08;;;;;;;5.38;74.57;96894.95;1787675;78;27419;-86
2021/11/22 05:37:42;;;;;;;53.78;33.78;;;;;;;5.36;74.72;96892.97;1818205;78;25675;-85
2021/11/22 05:40:09;;;;;;;57.05;34.13;;;;;;;5.36;74.72;96898.31;1819797;78;25465;-84
2021/11/22 05:42:36;;;;;;;58.55;36.15;;;;;;;5.29;74.56;96894.77;1819834;77;25772;-85
2021/11/22 05:45:04;;;;;;;59.83;34.92;;;;;;;5.21;74.72;96892.70;1819592;77;25881;-85
2021/11/22 05:47:31;;;;;;;55.50;34.50;;;;;;;5.20;74.85;96889.19;1819896;77;27662;-85
2021/11/22 05:50:07;;;;;;;72.75;42.23;;;;;;;5.13;74.79;96889.64;1820124;77;25242;-85
2021/11/22 05:52:26;;;;;;;71.17;41.30;;;;;;;5.09;74.96;96892.37;1775239;79;25674;-85
2021/11/22 05:54:55;;;;;;;72.53;43.65;;;;;;;5.09;75.05;96901.73;1794736;79;25941;-85
2021/11/22 05:57:23;;;;;;;71.62;43.15;;;;;;;5.06;75.02;96902.13;1770502;80;25797;-85
2021/11/22 05:59:51;;;;;;;76.28;44.55;;;;;;;5.04;75.05;96900.15;1781603;79;27395;-85
2021/11/22 06:02:18;;;;;;;71.82;39.05;;;;;;;5.02;75.09;96893.65;1778693;79;25901;-85
2021/11/22 06:04:44;;;;;;;71.45;43.40;;;;;;;4.99;75.08;96900.70;1794493;78;25684;-85
2021/11/22 06:07:11;;;;;;;70.10;41.58;;;;;;;4.94;75.00;96907.66;1778620;79;25664;-85
2021/11/22 06:09:38;;;;;;;74.35;43.25;;;;;;;4.89;75.15;96911.38;1794629;78;25838;-85
2021/11/22 06:12:06;;;;;;;71.60;41.73;;;;;;;4.82;75.19;96922.52;1778418;79;28622;-85
2021/11/22 06:14:32;;;;;;;66.40;38.63;;;;;;;4.83;75.32;96933.55;1772570;79;26494;-85
2021/11/22 06:16:59;;;;;;;71.37;41.98;;;;;;;4.83;75.32;96941.56;1778360;79;25725;-85
2021/11/22 06:19:25;;;;;;;60.55;38.70;;;;;;;4.81;75.39;96950.28;1794858;78;25791;-85
2021/11/22 06:21:52;;;;;;;59.65;37.85;;;;;;;4.84;75.46;96947.20;1777132;79;25750;-85
2021/11/22 06:24:21;;;;;;;61.83;37.55;;;;;;;4.84;75.49;96951.22;1794739;78;27524;-85
2021/11/22 06:26:49;;;;;;;59.75;36.23;;;;;;;4.85;75.54;96948.36;1778225;79;26020;-85
2021/11/22 06:29:18;;;;;;;62.45;37.05;;;;;;;4.87;75.58;96954.36;1794596;78;25744;-85
2021/11/22 06:31:45;;;;;;;74.82;40.17;;;;;;;4.87;75.55;96959.70;1778685;80;25749;-85
2021/11/22 06:34:12;;;;;;;62.05;38.75;;;;;;;4.87;75.62;96959.70;1794848;78;26417;-85
2021/11/22 06:36:39;;;;;;;63.70;37.13;;;;;;;4.91;75.67;96968.20;1778656;79;27482;-85
2021/11/22 06:39:06;;;;;;;76.95;41.37;;;;;;;4.93;75.70;96969.67;1793936;78;25267;-85
2021/11/22 06:41:32;;;;;;;77.03;41.45;;;;;;;4.96;75.73;96976.47;1778465;80;25679;-84
2021/11/22 06:43:59;;;;;;;71.87;39.75;;;;;;;4.98;75.76;96977.95;1794355;78;26141;-85
2021/11/22 06:46:26;;;;;;;79.15;44.60;;;;;;;4.99;75.82;96978.78;1791489;78;25728;-85
2021/11/22 06:48:53;;;;;;;77.75;42.75;;;;;;;5.00;75.83;96983.95;1791588;78;27569;-85
2021/11/22 06:51:19;;;;;;;80.22;43.87;;;;;;;5.04;75.87;96984.41;1819562;77;25678;-85
2021/11/22 06:53:46;;;;;;;94.07;48.23;;;;;;;5.07;75.88;96984.05;1819797;77;26440;-84
2021/11/22 06:56:13;;;;;;;86.72;47.70;;;;;;;5.12;75.91;96990.98;1797736;78;25723;-84
2021/11/22 06:58:40;;;;;;;77.75;43.00;;;;;;;5.16;75.95;96990.95;1817058;78;25680;-85
2021/11/22 07:01:06;;;;;;;73.90;41.63;;;;;;;5.22;75.92;96988.84;1819550;77;28067;-84
2021/11/22 07:03:33;;;;;;;76.50;43.28;;;;;;;5.24;75.86;96988.15;1819375;77;25798;-84
2021/11/22 07:06:00;;;;;;;86.92;46.88;;;;;;;5.26;75.88;96988.80;1819706;77;25935;-85
2021/11/22 07:08:26;;;;;;;83.37;45.58;;;;;;;5.28;75.81;96989.44;1819797;77;26439;-85
2021/11/22 07:10:53;;;;;;;106.95;52.10;;;;;;;5.30;75.82;96992.77;1820160;77;26450;-85
2021/11/22 07:13:23;;;;;;;99.15;50.48;;;;;;;5.30;75.67;96990.59;1820019;77;28056;-84
2021/11/22 07:15:49;;;;;;;99.40;50.30;;;;;;;5.30;75.63;96991.42;1819617;77;25723;-84
2021/11/22 07:18:15;;;;;;;91.12;47.20;;;;;;;5.33;75.69;97000.39;1819802;78;25700;-84
2021/11/22 07:20:46;;;;;;;87.82;47.62;;;;;;;5.33;75.63;97001.73;1820070;78;26273;-85
2021/11/22 07:23:10;;;;;;;83.80;47.62;;;;;;;5.35;75.66;96995.69;1819367;77;25242;-84
2021/11/22 07:25:37;;;;;;;81.60;46.58;;;;;;;5.37;75.64;97002.20;1819888;77;27348;-84
2021/11/22 07:28:04;;;;;;;88.22;48.83;;;;;;;5.39;75.64;97002.33;1819960;78;25732;-85
2021/11/22 07:30:30;;;;;;;95.57;51.33;;;;;;;5.41;75.68;97007.00;1819662;77;25755;-85
2021/11/22 07:32:57;;;;;;;88.78;50.28;;;;;;;5.43;75.69;97011.63;1819979;78;25728;-85
2021/11/22 07:35:24;;;;;;;98.20;49.15;;;;;;;5.48;75.76;97015.59;1820073;77;25684;-85
2021/11/22 07:37:52;;;;;;;92.08;49.33;;;;;;;5.44;75.74;97021.31;1820090;78;27969;-85
2021/11/22 07:40:22;;;;;;;89.62;50.15;;;;;;;5.46;75.78;97022.98;1819333;77;25703;-85
2021/11/22 07:42:51;;;;;;;86.47;47.78;;;;;;;5.49;75.78;97028.80;1819989;77;25853;-85
2021/11/22 07:45:20;;;;;;;91.45;49.88;;;;;;;5.47;75.83;97027.31;1819687;77;26765;-86
2021/11/22 07:47:47;;;;;;;89.50;49.98;;;;;;;5.48;75.90;97030.31;1820286;77;25751;-85
2021/11/22 07:50:14;;;;;;;91.10;50.65;;;;;;;5.48;75.92;97031.66;1820406;77;27038;-85
2021/11/22 07:52:40;;;;;;;97.47;54.23;;;;;;;5.46;75.95;97038.53;1820157;78;25840;-85
2021/11/22 07:55:08;;;;;;;100.92;56.85;;;;;;;5.50;76.04;97043.02;1778635;79;25925;-85
2021/11/22 07:57:34;;;;;;;97.33;55.20;;;;;;;5.53;76.00;97053.35;1794896;78;25713;-85
2021/11/22 08:00:01;;;;;;;102.87;58.45;;;;;;;5.53;75.95;97053.35;1778872;80;25737;-85
2021/11/22 08:02:27;;;;;;;112.08;61.53;;;;;;;5.54;76.00;97057.69;1794913;78;27502;-86
2021/11/22 08:04:54;;;;;;;109.63;58.65;;;;;;;5.58;76.05;97062.97;1778714;79;25880;-85
2021/11/22 08:07:22;;;;;;;100.47;57.15;;;;;;;5.61;76.05;97059.41;1794875;79;25713;-85
2021/11/22 08:14:53;;;;;;;102.47;56.00;;;;;;;5.67;75.98;97073.41;1778839;80;29035;-85
2021/11/22 08:17:19;;;;;;;97.10;55.35;;;;;;;5.70;75.97;97074.34;1794838;79;25744;-85
2021/11/22 08:19:46;;;;;;;111.00;57.40;;;;;;;5.72;75.96;97071.48;1778723;80;25753;-85
2021/11/22 08:22:13;;;;;;;109.10;60.45;;;;;;;5.76;75.93;97078.95;1794921;79;25780;-85
2021/11/22 08:24:39;;;;;;;97.80;56.40;;;;;;;5.79;75.90;97076.42;1778749;79;25877;-85
2021/11/22 08:27:06;;;;;;;103.90;55.45;;;;;;;5.80;75.90;97079.39;1794940;79;27454;-85
2021/11/22 08:29:34;;;;;;;94.87;51.95;;;;;;;5.85;75.94;97081.00;1778812;80;25852;-85
2021/11/22 08:32:00;;;;;;;94.03;52.88;;;;;;;5.89;75.96;97078.31;1794883;79;25823;-85
2021/11/22 08:34:27;;;;;;;95.42;51.63;;;;;;;5.94;76.01;97078.55;1778718;80;25731;-85
2021/11/22 08:36:53;;;;;;;101.15;52.60;;;;;;;5.99;76.03;97086.86;1795042;79;25736;-85
2021/11/22 08:39:20;;;;;;;98.85;54.77;;;;;;;6.00;75.98;97087.69;1778781;80;27381;-85
2021/11/22 08:41:47;;;;;;;102.17;55.17;;;;;;;5.99;76.05;97089.53;1794444;79;26216;-84
2021/11/22 08:44:13;;;;;;;116.15;63.68;;;;;;;6.02;76.06;97099.88;1778875;79;25717;-84
2021/11/22 08:46:41;;;;;;;109.12;60.90;;;;;;;6.03;76.16;97098.03;1794520;78;26378;-85
2021/11/22 08:49:08;;;;;;;110.57;60.23;;;;;;;6.07;76.19;97099.30;1794934;78;25728;-85
2021/11/22 08:51:35;;;;;;;102.07;59.73;;;;;;;6.11;76.24;97097.91;1741843;82;27636;-85
2021/11/22 08:54:03;;;;;;;100.35;58.38;;;;;;;6.13;76.29;97100.72;1737638;81;25341;-85
2021/11/22 08:56:30;;;;;;;97.40;55.12;;;;;;;6.19;76.30;97095.08;1717943;81;25694;-85
2021/11/22 08:58:57;;;;;;;95.55;53.60;;;;;;;6.24;76.27;97103.91;1737421;81;26328;-85
2021/11/22 09:01:24;;;;;;;94.85;55.00;;;;;;;6.28;76.22;97101.17;1737805;81;26555;-85
2021/11/22 09:03:51;;;;;;;94.67;53.83;;;;;;;6.30;76.22;97096.42;1737729;81;27538;-86
2021/11/22 09:06:19;;;;;;;98.70;57.60;;;;;;;6.30;76.23;97097.25;1733232;82;25745;-85
2021/11/22 09:08:47;;;;;;;101.33;55.58;;;;;;;6.32;76.35;97103.25;1733383;82;26440;-86
2021/11/22 09:11:14;;;;;;;94.13;54.03;;;;;;;6.31;76.38;97101.59;1733327;81;25740;-85
2021/11/22 09:13:41;;;;;;;96.87;54.35;;;;;;;6.31;76.45;97100.77;1733192;81;25794;-86
2021/11/22 09:16:09;;;;;;;95.55;55.00;;;;;;;6.32;76.44;97099.74;1733333;81;28187;-85
2021/11/22 09:18:36;;;;;;;102.05;54.73;;;;;;;6.33;76.49;97104.91;1733201;82;25764;-84
2021/11/22 09:21:04;;;;;;;93.17;55.23;;;;;;;6.31;76.50;97100.77;1733341;81;25750;-86
2021/11/22 09:23:34;;;;;;;97.65;55.28;;;;;;;6.35;76.57;97104.73;1733480;81;25739;-86
2021/11/22 09:26:01;;;;;;;98.15;55.17;;;;;;;6.38;76.64;97102.50;1733308;81;25739;-86
2021/11/22 09:28:28;;;;;;;98.78;55.50;;;;;;;6.42;76.68;97099.73;1733288;81;27424;-86
2021/11/22 09:30:54;;;;;;;95.35;55.50;;;;;;;6.47;76.64;97095.15;1733069;82;25282;-86
2021/11/22 09:33:21;;;;;;;98.45;54.60;;;;;;;6.50;76.65;97094.77;1713191;82;25796;-86
2021/11/22 09:35:47;;;;;;;89.55;52.50;;;;;;;6.51;76.63;97095.09;1733454;81;25725;-86
2021/11/22 09:38:14;;;;;;;95.87;54.77;;;;;;;6.50;76.73;97097.45;1733317;81;25728;-86
2021/11/22 09:40:40;;;;;;;93.90;52.83;;;;;;;6.51;76.74;97093.75;1733276;81;27527;-86
2021/11/22 09:43:07;;;;;;;93.85;53.35;;;;;;;6.55;76.81;97096.34;1733031;81;26357;-87
2021/11/22 09:45:33;;;;;;;89.95;54.25;;;;;;;6.59;76.79;97098.13;1738541;79;25779;-86
2021/11/22 09:48:03;;;;;;;92.62;54.18;;;;;;;6.62;76.84;97101.27;1758649;80;25747;-86
2021/11/22 09:50:32;;;;;;;95.15;53.63;;;;;;;6.69;76.85;97102.64;1758502;80;25967;-86
2021/11/22 09:53:01;;;;;;;79.65;46.13;;;;;;;6.74;76.79;97100.22;1794780;78;27482;-86
2021/11/22 09:55:30;;;;;;;74.37;45.80;;;;;;;6.76;76.77;97102.20;1778286;79;25869;-86
2021/11/22 09:58:02;;;;;;;77.22;46.08;;;;;;;6.81;76.66;97100.58;1791686;78;25724;-87
2021/11/22 10:00:37;;;;;;;;;;;;;;;6.90;76.46;97108.47;1794454;78;25847;-86
2021/11/22 10:03:10;;;;;;;80.32;46.48;;;;;;;6.96;76.42;97107.70;1791762;80;25648;-87
2021/11/22 10:05:38;;;;;;;104.65;55.23;;;;;;;6.98;76.36;97104.32;1791807;80;28285;-87
2021/11/22 10:08:15;;;;;;;95.50;50.85;;;;;;;7.02;76.38;97100.20;1791618;78;25772;-87
2021/11/22 10:10:55;;;;;;;76.20;45.92;;;;;;;7.08;76.30;97098.09;1818935;77;25672;-87
2021/11/22 10:13:29;;;;;;;87.02;49.98;;;;;;;7.15;76.21;97104.31;1778271;79;25722;-86
2021/11/22 10:16:16;;;;;;;80.35;49.63;;;;;;;7.14;76.10;97099.97;1791822;78;25799;-87
2021/11/22 10:18:47;;;;;;;78.05;47.65;;;;;;;7.17;76.15;97106.29;1791561;78;27558;-87
2021/11/22 10:21:26;;;;;;;75.30;45.78;;;;;;;7.22;76.34;97102.52;1791536;78;25755;-87
2021/11/22 10:23:58;;;;;;;72.87;45.10;;;;;;;7.27;76.32;97105.41;1791804;78;25684;-86
2021/11/22 10:26:25;;;;;;;80.27;46.20;;;;;;;7.31;76.21;97102.66;1792212;78;25743;-86
2021/11/22 10:28:55;;;;;;;66.75;42.15;;;;;;;7.23;76.19;97083.53;1791385;79;25321;-87
2021/11/22 10:31:26;;;;;;;69.55;41.18;;;;;;;7.37;76.07;97105.88;1769487;79;27439;-86
2021/11/22 10:33:56;;;;;;;65.60;41.00;;;;;;;7.42;75.95;97103.95;1791688;79;25776;-86
2021/11/22 10:36:26;;;;;;;66.02;39.35;;;;;;;7.42;75.80;97103.45;1791811;79;25640;-86
2021/11/22 10:38:57;;;;;;;67.40;40.60;;;;;;;7.42;75.69;97099.41;1791861;79;25736;-86
2021/11/22 10:41:29;;;;;;;66.80;40.55;;;;;;;7.44;75.64;97104.08;1791964;79;25784;-86
2021/11/22 10:44:09;;;;;;;67.32;41.88;;;;;;;7.42;75.67;97106.64;1792000;78;26837;-86
2021/11/22 10:46:44;;;;;;;69.55;40.78;;;;;;;7.42;75.69;97103.45;1790000;78;25866;-86
2021/11/22 10:49:43;;;;;;;69.62;42.75;;;;;;;7.47;75.70;97108.23;1791670;79;25776;-86
2021/11/22 10:52:17;;;;;;;102.07;53.00;;;;;;;7.49;75.65;97110.17;1819814;77;25710;-87
2021/11/22 10:54:59;;;;;;;90.57;52.25;;;;;;;7.36;75.61;97109.63;1778523;79;25855;-87
2021/11/22 10:57:42;;;;;;;87.88;51.85;;;;;;;7.33;75.82;97107.33;1791762;78;27461;-86
2021/11/22 11:00:28;;;;;;;89.95;53.08;;;;;;;7.35;75.83;97112.50;1791724;78;25796;-86
2021/11/22 11:02:57;;;;;;;113.65;61.98;;;;;;;7.36;75.87;97110.97;1820041;77;25727;-85
2021/11/22 11:05:34;;;;;;;92.20;53.90;;;;;;;7.30;75.87;97114.42;1778460;79;25880;-85
2021/11/22 11:08:08;;;;;;;104.95;60.40;;;;;;;7.28;75.84;97115.13;1791910;78;25742;-86
2021/11/22 11:10:36;;;;;;;83.20;48.30;;;;;;;7.27;75.97;97118.02;1791765;78;28234;-86
2021/11/22 11:13:07;;;;;;;85.17;48.58;;;;;;;7.23;75.99;97119.77;1791809;78;26260;-85
2021/11/22 11:15:34;;;;;;;83.78;48.48;;;;;;;7.20;76.08;97121.50;1791867;78;25689;-86
2021/11/22 11:18:01;;;;;;;85.42;50.25;;;;;;;7.21;76.15;97122.33;1791821;78;26046;-87
2021/11/22 11:20:31;;;;;;;74.87;46.15;;;;;;;7.22;76.23;97126.67;1791943;78;25694;-86
2021/11/22 11:22:58;;;;;;;78.57;46.35;;;;;;;7.21;76.13;97125.02;1791788;78;28167;-86
2021/11/22 11:25:26;;;;;;;79.95;45.63;;;;;;;7.22;76.10;97126.67;1791725;78;25779;-86
2021/11/22 11:27:53;;;;;;;78.45;45.55;;;;;;;7.20;76.10;97127.37;1791782;79;25765;-85
2021/11/22 11:30:21;;;;;;;75.20;43.60;;;;;;;7.19;76.10;97131.09;1791576;78;25846;-86
2021/11/22 11:32:52;;;;;;;76.33;44.27;;;;;;;7.19;76.11;97131.09;1791893;80;25918;-86